Time;durP1;ratioP1;P1;durP2;ratioP2;P2;SDS_P1;SDS_P2;PMS_P1;PMS_P2;Temp;Humidity;BMP_temperature;BMP_pressure;BME280_temperature;BME280_humidity;BME280_pressure;Samples;Min_cycle;Max_cycle;Signal;HPM_P1;HPM_P2
2021/04/07 00:00:51;;;;;;;7.00;0.85;;;1.00;99.90;;;;;;5050144;28;20359;-82
2021/04/07 00:03:16;;;;;;;5.40;0.98;;;0.90;99.90;;;;;;5042382;28;20029;-81
2021/04/07 00:05:43;;;;;;;6.22;1.25;;;0.80;99.90;;;;;;5050171;28;20479;-84
2021/04/07 00:08:09;;;;;;;4.97;0.90;;;0.80;99.90;;;;;;5049236;28;20024;-81
2021/04/07 00:10:38;;;;;;;3.40;0.73;;;0.80;99.90;;;;;;5048961;28;20036;-81
2021/04/07 00:13:05;;;;;;;7.55;1.20;;;0.70;99.90;;;;;;5033400;28;20124;-83
2021/04/07 00:15:31;;;;;;;2.40;0.70;;;0.70;99.90;;;;;;5050077;28;20025;-84
2021/04/07 00:17:57;;;;;;;5.50;1.40;;;0.70;99.90;;;;;;5041105;28;20048;-82
2021/04/07 00:20:25;;;;;;;3.95;0.70;;;0.70;99.90;;;;;;5043681;28;20049;-81
2021/04/07 00:22:51;;;;;;;3.45;0.68;;;0.70;99.90;;;;;;5054782;28;20064;-80
2021/04/07 00:25:21;;;;;;;8.27;1.15;;;0.60;99.90;;;;;;5055039;28;20016;-82
2021/04/07 00:27:58;;;;;;;7.47;1.30;;;0.60;99.90;;;;;;5062456;28;20140;-81
2021/04/07 00:30:26;;;;;;;7.28;1.00;;;0.60;99.90;;;;;;5046299;28;20025;-82
2021/04/07 00:32:53;;;;;;;11.68;1.52;;;0.60;99.90;;;;;;5042932;28;20043;-81
2021/04/07 00:35:19;;;;;;;8.40;1.80;;;0.50;99.90;;;;;;5054984;28;20052;-81
2021/04/07 00:37:46;;;;;;;7.80;1.63;;;0.50;99.90;;;;;;5052269;28;20039;-81
2021/04/07 00:40:12;;;;;;;7.78;1.98;;;0.50;99.90;;;;;;5053541;28;20035;-83
2021/04/07 00:42:39;;;;;;;8.40;1.73;;;0.50;99.90;;;;;;5036384;28;20033;-83
2021/04/07 00:45:07;;;;;;;13.25;2.83;;;0.50;99.90;;;;;;5050529;28;20079;-81
2021/04/07 00:47:33;;;;;;;8.52;1.67;;;0.60;99.90;;;;;;5053104;28;20036;-83
2021/04/07 00:49:58;;;;;;;10.80;1.90;;;0.60;99.90;;;;;;5035608;28;20029;-82
2021/04/07 00:52:24;;;;;;;10.73;1.80;;;0.60;99.90;;;;;;5017966;28;20029;-82
2021/04/07 00:54:51;;;;;;;9.85;2.00;;;0.60;99.90;;;;;;5048414;28;20390;-83
2021/04/07 00:57:17;;;;;;;10.00;2.15;;;0.60;99.90;;;;;;5035611;28;20386;-82
2021/04/07 00:59:43;;;;;;;7.80;1.75;;;0.60;99.90;;;;;;5054012;28;20020;-82
2021/04/07 01:02:09;;;;;;;9.75;3.03;;;0.70;99.90;;;;;;5072169;28;20053;-83
2021/04/07 01:04:35;;;;;;;15.80;3.67;;;0.70;99.90;;;;;;5054170;28;20063;-84
2021/04/07 01:07:02;;;;;;;16.38;6.82;;;0.70;99.90;;;;;;5053533;28;20036;-84
2021/04/07 01:09:27;;;;;;;19.92;8.05;;;0.80;99.90;;;;;;5054156;28;20036;-83
2021/04/07 01:11:53;;;;;;;19.83;8.98;;;0.80;99.90;;;;;;5045513;28;20544;-83
2021/04/07 01:14:19;;;;;;;20.77;9.45;;;0.80;99.90;;;;;;5047911;28;20063;-83
2021/04/07 01:16:45;;;;;;;17.77;8.38;;;0.80;99.90;;;;;;5054920;28;20024;-84
2021/04/07 01:19:11;;;;;;;19.80;7.07;;;0.90;99.90;;;;;;5072698;28;20055;-83
2021/04/07 01:21:37;;;;;;;24.67;7.90;;;0.90;99.90;;;;;;5054435;28;20044;-82
2021/04/07 01:24:07;;;;;;;19.33;6.57;;;0.90;99.90;;;;;;5072347;28;20522;-84
2021/04/07 01:26:33;;;;;;;14.48;4.93;;;0.90;99.90;;;;;;5050912;28;20025;-83
2021/04/07 01:28:59;;;;;;;14.13;4.93;;;0.90;99.90;;;;;;5052473;28;20088;-82
2021/04/07 01:31:24;;;;;;;13.98;4.55;;;0.90;99.90;;;;;;5072164;28;20033;-82
2021/04/07 01:33:50;;;;;;;18.58;4.80;;;0.90;99.90;;;;;;5072395;28;20040;-83
2021/04/07 01:36:16;;;;;;;13.43;4.82;;;0.90;99.90;;;;;;5072293;28;20033;-84
2021/04/07 01:38:41;;;;;;;15.57;5.63;;;1.00;99.90;;;;;;5054379;28;20044;-82
2021/04/07 01:41:07;;;;;;;12.95;5.70;;;1.00;99.90;;;;;;5071986;28;20838;-83
2021/04/07 01:43:34;;;;;;;18.35;5.38;;;1.00;99.90;;;;;;5053642;28;20070;-84
2021/04/07 01:46:02;;;;;;;14.65;4.63;;;1.00;99.90;;;;;;5053761;28;20073;-84
2021/04/07 01:48:29;;;;;;;10.35;4.00;;;1.00;99.90;;;;;;5037464;28;20129;-83
2021/04/07 01:50:55;;;;;;;11.82;3.65;;;1.00;99.90;;;;;;5054498;28;20612;-84
2021/04/07 01:53:21;;;;;;;8.25;3.03;;;1.00;99.90;;;;;;5054111;28;20071;-84
2021/04/07 01:55:47;;;;;;;10.10;3.75;;;1.00;99.90;;;;;;5045813;28;20021;-84
2021/04/07 01:58:20;;;;;;;9.07;3.10;;;1.00;99.90;;;;;;5072259;28;20489;-82
2021/04/07 02:00:45;;;;;;;9.90;3.00;;;1.10;99.90;;;;;;5074296;28;20508;-82
2021/04/07 02:03:11;;;;;;;11.40;3.08;;;1.00;99.90;;;;;;5074162;28;20029;-83
2021/04/07 02:05:36;;;;;;;7.93;3.05;;;1.00;99.90;;;;;;5074252;28;20457;-82
2021/04/07 02:08:02;;;;;;;7.93;2.80;;;1.00;99.90;;;;;;5074138;28;20029;-82
2021/04/07 02:10:28;;;;;;;12.68;3.50;;;1.00;99.90;;;;;;5074112;28;20024;-83
2021/04/07 02:12:55;;;;;;;10.73;2.90;;;1.10;99.90;;;;;;5056046;28;20021;-82
2021/04/07 02:15:23;;;;;;;8.75;3.20;;;1.10;99.90;;;;;;5073529;28;20437;-82
2021/04/07 02:17:48;;;;;;;9.95;3.42;;;1.10;99.90;;;;;;5073224;28;20068;-82
2021/04/07 02:20:16;;;;;;;12.45;4.03;;;1.10;99.90;;;;;;5073846;28;20023;-83
2021/04/07 02:22:41;;;;;;;7.88;2.83;;;1.10;99.90;;;;;;5055937;28;20113;-82
2021/04/07 02:25:09;;;;;;;8.85;2.55;;;1.10;99.90;;;;;;5073425;28;20358;-83
2021/04/07 02:27:35;;;;;;;11.50;2.88;;;1.20;99.90;;;;;;5055675;28;20037;-83
2021/04/07 02:30:04;;;;;;;7.72;2.10;;;1.20;99.90;;;;;;5055979;28;20017;-82
2021/04/07 02:32:30;;;;;;;6.00;2.92;;;1.30;99.90;;;;;;5075287;28;20089;-82
2021/04/07 02:34:55;;;;;;;6.28;2.60;;;1.30;99.90;;;;;;5056305;28;20529;-82
2021/04/07 02:37:21;;;;;;;8.88;3.33;;;1.30;99.90;;;;;;5075321;28;20036;-82
2021/04/07 02:39:48;;;;;;;8.05;2.88;;;1.20;99.90;;;;;;5056216;28;20158;-81
2021/04/07 02:42:14;;;;;;;6.03;2.60;;;1.20;99.90;;;;;;5072967;28;20025;-82
2021/04/07 02:44:40;;;;;;;8.18;2.70;;;1.20;99.90;;;;;;5073154;28;20052;-83
2021/04/07 02:47:07;;;;;;;6.75;2.20;;;1.20;99.90;;;;;;5055741;28;20511;-83
2021/04/07 02:49:33;;;;;;;10.05;3.00;;;1.20;99.90;;;;;;5039193;28;20024;-82
2021/04/07 02:51:59;;;;;;;6.47;1.85;;;1.20;99.90;;;;;;5054854;28;20111;-83
2021/04/07 02:54:25;;;;;;;4.65;1.50;;;1.20;99.90;;;;;;5074255;28;20071;-83
2021/04/07 02:56:51;;;;;;;5.45;1.45;;;1.20;99.90;;;;;;5055776;28;20028;-83
2021/04/07 02:59:17;;;;;;;6.05;1.55;;;1.20;99.90;;;;;;5073547;28;20028;-83
2021/04/07 03:01:42;;;;;;;7.55;1.65;;;1.20;99.90;;;;;;5055518;28;20374;-83
2021/04/07 03:04:08;;;;;;;8.23;2.33;;;1.10;99.90;;;;;;5055699;28;20039;-83
2021/04/07 03:06:34;;;;;;;6.05;2.25;;;1.10;99.90;;;;;;5073546;28;20107;-84
2021/04/07 03:09:00;;;;;;;12.02;3.30;;;1.10;99.90;;;;;;5073626;28;20025;-83
2021/04/07 03:11:29;;;;;;;5.78;2.50;;;1.10;99.90;;;;;;5073578;28;20386;-83
2021/04/07 03:13:55;;;;;;;8.50;3.17;;;1.00;99.90;;;;;;5055576;28;20481;-84
2021/04/07 03:16:20;;;;;;;5.05;3.00;;;1.00;99.90;;;;;;5073450;28;20059;-82
2021/04/07 03:18:46;;;;;;;7.32;3.30;;;1.00;99.90;;;;;;5055342;28;20056;-84
2021/04/07 03:21:11;;;;;;;9.40;3.25;;;0.90;99.90;;;;;;5073492;28;20024;-84
2021/04/07 03:23:37;;;;;;;6.50;3.22;;;0.90;99.90;;;;;;5072455;28;20131;-84
2021/04/07 03:26:04;;;;;;;8.05;2.58;;;0.90;99.90;;;;;;5072537;28;20528;-83
2021/04/07 03:28:30;;;;;;;9.18;2.85;;;1.00;99.90;;;;;;5054874;28;20024;-82
2021/04/07 03:30:55;;;;;;;10.00;4.25;;;0.90;99.90;;;;;;5038324;28;20151;-83
2021/04/07 03:33:23;;;;;;;7.85;2.85;;;0.90;99.90;;;;;;5072361;28;20031;-83
2021/04/07 03:35:50;;;;;;;8.05;3.40;;;0.90;99.90;;;;;;5073310;28;20048;-82
2021/04/07 03:38:17;;;;;;;10.57;2.90;;;1.00;99.90;;;;;;5072902;28;20033;-83
2021/04/07 03:40:43;;;;;;;9.90;2.92;;;0.90;99.90;;;;;;5055252;28;20102;-84
2021/04/07 03:43:13;;;;;;;6.82;2.55;;;0.90;99.90;;;;;;5073111;28;20056;-82
2021/04/07 03:45:46;;;;;;;7.32;2.03;;;0.80;99.90;;;;;;5073366;28;20031;-82
2021/04/07 03:48:13;;;;;;;7.35;2.65;;;0.90;99.90;;;;;;5055237;28;20426;-84
2021/04/07 03:50:39;;;;;;;5.75;2.45;;;0.90;99.90;;;;;;5055284;28;20024;-83
2021/04/07 03:53:06;;;;;;;7.88;1.90;;;1.00;99.90;;;;;;5073221;28;20029;-83
2021/04/07 03:55:32;;;;;;;5.78;1.90;;;1.00;99.90;;;;;;5055135;28;20024;-82
2021/04/07 03:57:57;;;;;;;10.45;2.13;;;1.00;99.90;;;;;;5072978;28;20132;-82
2021/04/07 04:00:23;;;;;;;7.18;2.13;;;1.00;99.90;;;;;;5054925;28;20112;-82
2021/04/07 04:02:49;;;;;;;8.48;2.22;;;1.00;99.90;;;;;;5056380;28;20086;-83
2021/04/07 04:05:14;;;;;;;4.57;1.70;;;1.00;99.90;;;;;;5059027;28;20389;-83
2021/04/07 04:07:40;;;;;;;6.25;1.60;;;1.00;99.90;;;;;;5058614;28;20488;-83
2021/04/07 04:10:06;;;;;;;6.25;1.70;;;0.90;99.90;;;;;;5076817;28;20381;-83
2021/04/07 04:12:32;;;;;;;9.52;2.92;;;0.90;99.90;;;;;;5041549;28;20029;-81
2021/04/07 04:14:59;;;;;;;10.75;2.35;;;0.90;99.90;;;;;;5058833;28;20016;-82
2021/04/07 04:17:24;;;;;;;16.15;2.63;;;0.80;99.90;;;;;;5076521;28;20059;-83
2021/04/07 04:19:50;;;;;;;10.32;2.42;;;0.80;99.90;;;;;;5076942;28;20485;-83
2021/04/07 04:22:16;;;;;;;9.23;2.80;;;0.80;99.90;;;;;;5058719;28;20028;-82
2021/04/07 04:24:42;;;;;;;12.10;2.88;;;0.80;99.90;;;;;;5076544;28;20040;-82
2021/04/07 04:27:08;;;;;;;7.78;2.50;;;0.80;99.90;;;;;;5076553;28;20013;-82
2021/04/07 04:29:34;;;;;;;7.50;2.63;;;0.80;99.90;;;;;;5076088;28;20059;-83
2021/04/07 04:32:00;;;;;;;7.88;2.55;;;0.80;99.90;;;;;;5058695;28;20017;-84
2021/04/07 04:34:25;;;;;;;9.07;2.83;;;0.80;99.90;;;;;;5058889;28;20023;-83
2021/04/07 04:36:51;;;;;;;11.85;3.10;;;0.80;99.90;;;;;;5066493;28;20363;-82
2021/04/07 04:39:16;;;;;;;9.43;2.70;;;0.80;99.90;;;;;;5058737;28;20040;-84
2021/04/07 04:41:42;;;;;;;9.18;2.60;;;0.80;99.90;;;;;;5067321;28;20024;-84
2021/04/07 04:44:08;;;;;;;11.90;3.28;;;0.80;99.90;;;;;;5057829;28;20032;-84
2021/04/07 04:46:33;;;;;;;9.27;3.70;;;0.80;99.90;;;;;;5057213;28;20020;-85
2021/04/07 04:48:59;;;;;;;5.30;2.55;;;0.80;99.90;;;;;;5076757;28;20387;-81
2021/04/07 04:51:24;;;;;;;9.23;2.42;;;0.80;99.90;;;;;;5043026;28;20025;-85
2021/04/07 04:53:50;;;;;;;8.45;2.50;;;0.90;99.90;;;;;;5056602;28;20039;-82
2021/04/07 04:56:15;;;;;;;6.80;2.60;;;0.90;99.90;;;;;;5082511;28;20082;-83
2021/04/07 04:58:41;;;;;;;9.77;2.75;;;0.90;99.90;;;;;;5063399;28;20032;-84
2021/04/07 05:01:07;;;;;;;6.30;2.42;;;0.90;99.90;;;;;;5058351;28;20024;-85
2021/04/07 05:03:32;;;;;;;7.38;3.08;;;0.90;99.90;;;;;;5058805;28;20021;-83
2021/04/07 05:05:58;;;;;;;8.65;2.63;;;0.90;99.90;;;;;;5075795;28;20149;-84
2021/04/07 05:08:23;;;;;;;13.82;3.80;;;0.90;99.90;;;;;;5056560;28;20028;-84
2021/04/07 05:10:49;;;;;;;5.60;2.70;;;1.00;99.90;;;;;;5074686;28;20048;-84
2021/04/07 05:13:15;;;;;;;7.00;2.97;;;1.00;99.90;;;;;;5057452;28;20020;-84
2021/04/07 05:15:41;;;;;;;9.02;3.40;;;1.00;99.90;;;;;;5056169;28;20024;-85
2021/04/07 05:18:15;;;;;;;10.85;3.40;;;1.00;99.90;;;;;;5055937;28;20115;-84
2021/04/07 05:20:41;;;;;;;5.95;2.90;;;1.00;99.90;;;;;;5053766;28;20024;-85
2021/04/07 05:23:07;;;;;;;7.10;3.03;;;1.00;99.90;;;;;;5053828;28;20052;-85
2021/04/07 05:25:33;;;;;;;9.80;3.75;;;1.00;99.90;;;;;;5073053;28;20024;-86
2021/04/07 05:28:04;;;;;;;4.68;3.00;;;1.10;99.90;;;;;;5063041;28;20032;-85
2021/04/07 05:30:59;;;;;;;8.93;3.58;;;1.10;99.90;;;;;;5036914;28;20032;-84
2021/04/07 05:33:23;;;;;;;9.68;4.28;;;1.10;99.90;;;;;;5061132;28;20029;-85
2021/04/07 05:35:49;;;;;;;6.53;4.35;;;1.10;99.90;;;;;;5044520;28;20024;-85
2021/04/07 05:38:17;;;;;;;8.13;4.20;;;1.10;99.90;;;;;;5040507;28;20198;-87
2021/04/07 05:40:43;;;;;;;8.32;4.35;;;1.20;99.90;;;;;;5054856;28;20078;-86
2021/04/07 05:43:08;;;;;;;8.18;4.13;;;1.20;99.90;;;;;;5041265;28;20028;-87
2021/04/07 05:45:38;;;;;;;7.28;4.15;;;1.20;99.90;;;;;;5057941;28;20017;-86
2021/04/07 05:48:05;;;;;;;6.03;3.25;;;1.20;99.90;;;;;;5078023;28;20029;-86
2021/04/07 05:50:31;;;;;;;6.95;3.47;;;1.20;99.90;;;;;;5074408;28;20027;-87
2021/04/07 05:52:56;;;;;;;6.55;3.33;;;1.10;99.90;;;;;;5055946;28;20036;-88
2021/04/07 05:55:22;;;;;;;6.28;3.40;;;0.90;99.90;;;;;;5053621;28;20123;-87
2021/04/07 05:58:05;;;;;;;6.68;3.88;;;0.70;99.90;;;;;;5056541;28;20064;-85
2021/04/07 06:00:32;;;;;;;8.45;3.97;;;0.60;99.90;;;;;;5056099;28;20486;-85
2021/04/07 06:03:00;;;;;;;8.43;4.18;;;0.60;99.90;;;;;;5053807;28;20024;-86
2021/04/07 06:05:29;;;;;;;8.30;4.03;;;0.50;99.90;;;;;;5069952;28;20028;-86
2021/04/07 06:07:55;;;;;;;8.30;4.43;;;0.50;99.90;;;;;;5056818;28;20016;-86
2021/04/07 06:10:21;;;;;;;9.20;4.88;;;0.50;99.90;;;;;;5056792;28;20020;-86
2021/04/07 06:12:47;;;;;;;9.75;5.55;;;0.50;99.90;;;;;;5055986;28;20021;-85
2021/04/07 06:15:14;;;;;;;9.73;6.45;;;0.60;99.90;;;;;;5056930;28;20016;-88
2021/04/07 06:17:42;;;;;;;12.27;6.90;;;0.60;99.90;;;;;;5056787;28;20033;-86
2021/04/07 06:20:10;;;;;;;9.13;5.88;;;0.60;99.90;;;;;;5057154;28;20032;-89
2021/04/07 06:22:36;;;;;;;10.25;5.82;;;0.70;99.90;;;;;;5056565;28;20485;-88
2021/04/07 06:25:06;;;;;;;11.93;6.28;;;0.80;99.90;;;;;;5050765;28;20032;-88
2021/04/07 06:27:32;;;;;;;11.65;6.00;;;0.80;99.90;;;;;;5038791;28;20020;-86
2021/04/07 06:30:00;;;;;;;11.50;6.50;;;0.90;99.90;;;;;;5064325;28;20119;-84
2021/04/07 06:32:29;;;;;;;10.48;6.38;;;1.00;99.90;;;;;;5043103;28;20115;-84
2021/04/07 06:34:55;;;;;;;11.77;6.55;;;1.10;99.90;;;;;;5055675;28;20473;-91
2021/04/07 06:37:21;;;;;;;10.40;5.90;;;1.20;99.90;;;;;;5069543;28;20040;-86
2021/04/07 06:39:47;;;;;;;12.10;7.05;;;1.30;99.90;;;;;;5054582;28;20025;-85
2021/04/07 06:42:13;;;;;;;9.85;6.47;;;1.30;99.90;;;;;;5056049;28;20044;-84
2021/04/07 06:44:39;;;;;;;11.82;7.22;;;1.40;99.90;;;;;;5055653;28;20016;-84
2021/04/07 06:47:05;;;;;;;12.98;7.28;;;1.50;99.90;;;;;;5041093;28;20157;-84
2021/04/07 06:49:33;;;;;;;13.35;8.75;;;1.50;99.90;;;;;;5036724;28;20348;-85
2021/04/07 06:52:02;;;;;;;11.32;6.68;;;1.60;99.90;;;;;;5043188;28;20021;-84
2021/04/07 06:54:28;;;;;;;10.50;6.18;;;1.70;99.90;;;;;;5048760;28;20493;-84
2021/04/07 06:56:54;;;;;;;10.20;6.20;;;1.70;99.90;;;;;;5073854;28;20024;-85
2021/04/07 06:59:21;;;;;;;9.43;5.25;;;1.80;99.90;;;;;;5051313;28;20013;-85
2021/04/07 07:01:46;;;;;;;8.80;4.75;;;1.80;99.90;;;;;;5054683;28;20024;-85
2021/04/07 07:04:13;;;;;;;11.25;6.50;;;1.90;99.90;;;;;;5052148;28;20048;-86
2021/04/07 07:06:38;;;;;;;11.23;5.22;;;2.00;99.90;;;;;;5055970;28;20531;-85
2021/04/07 07:09:14;;;;;;;9.10;5.43;;;2.10;99.90;;;;;;5055867;28;20021;-85
2021/04/07 07:11:40;;;;;;;8.95;4.75;;;2.20;99.90;;;;;;5073286;28;20077;-84
2021/04/07 07:14:07;;;;;;;9.00;4.70;;;2.30;99.90;;;;;;5045906;28;20163;-85
2021/04/07 07:16:32;;;;;;;8.27;4.38;;;2.50;99.90;;;;;;5035597;28;20540;-85
2021/04/07 07:18:58;;;;;;;11.52;6.35;;;2.50;99.90;;;;;;5054099;28;20119;-85
2021/04/07 07:21:25;;;;;;;11.25;5.00;;;2.60;99.90;;;;;;5055540;28;20020;-85
2021/04/07 07:23:50;;;;;;;10.25;4.55;;;2.60;99.90;;;;;;5055367;28;20540;-86
2021/04/07 07:26:18;;;;;;;10.52;4.57;;;2.70;99.90;;;;;;5056255;28;20021;-85
2021/04/07 07:28:50;;;;;;;7.72;3.88;;;2.70;99.90;;;;;;5055927;28;20373;-86
2021/04/07 07:31:34;;;;;;;8.32;3.53;;;2.90;99.90;;;;;;5049337;28;20045;-86
2021/04/07 07:34:02;;;;;;;8.02;3.97;;;3.00;99.90;;;;;;5060366;28;20036;-86
2021/04/07 07:36:29;;;;;;;6.82;2.92;;;3.10;99.90;;;;;;5056038;28;20025;-86
2021/04/07 07:38:57;;;;;;;9.20;3.28;;;3.20;99.90;;;;;;5059265;28;20040;-87
2021/04/07 07:41:31;;;;;;;9.90;3.17;;;3.20;99.90;;;;;;5049589;28;20078;-88
2021/04/07 07:43:57;;;;;;;9.23;3.25;;;3.20;99.90;;;;;;5046795;28;20032;-87
2021/04/07 07:46:28;;;;;;;8.02;2.78;;;3.20;99.90;;;;;;5056393;28;20552;-84
2021/04/07 07:48:54;;;;;;;9.23;2.83;;;3.20;99.90;;;;;;5056043;28;20017;-84
2021/04/07 07:51:23;;;;;;;8.55;2.75;;;3.30;99.90;;;;;;5057574;28;20028;-87
2021/04/07 07:53:50;;;;;;;9.55;3.00;;;3.40;99.90;;;;;;5057825;28;20087;-87
2021/04/07 07:56:17;;;;;;;7.03;1.80;;;3.50;99.90;;;;;;5040947;28;20508;-86
2021/04/07 07:58:45;;;;;;;6.88;1.90;;;3.70;99.90;;;;;;5050651;28;20039;-81
2021/04/07 08:01:16;;;;;;;9.48;1.77;;;3.70;99.90;;;;;;5079118;28;20027;-81
2021/04/07 08:03:48;;;;;;;8.32;1.27;;;3.90;99.90;;;;;;5060266;28;20497;-81
2021/04/07 08:06:16;;;;;;;7.65;1.80;;;4.00;99.90;;;;;;5076135;28;20024;-83
2021/04/07 08:08:42;;;;;;;8.18;1.10;;;4.00;99.90;;;;;;5052521;28;20029;-82
2021/04/07 08:11:08;;;;;;;9.23;1.10;;;4.10;99.90;;;;;;5078003;28;20043;-83
2021/04/07 08:13:44;;;;;;;9.57;1.55;;;4.20;99.90;;;;;;5046992;28;20048;-83
2021/04/07 08:16:13;;;;;;;8.82;1.40;;;4.40;99.90;;;;;;5063824;28;20075;-83
2021/04/07 08:18:39;;;;;;;11.60;1.98;;;4.50;99.90;;;;;;5057664;28;20477;-81
2021/04/07 08:21:07;;;;;;;10.88;2.10;;;4.70;99.90;;;;;;5059017;28;20112;-87
2021/04/07 08:23:36;;;;;;;17.02;2.15;;;4.80;99.90;;;;;;5050369;28;20053;-86
2021/04/07 08:26:04;;;;;;;13.15;2.13;;;4.80;99.90;;;;;;5042032;28;20021;-86
2021/04/07 08:28:32;;;;;;;15.77;2.50;;;4.90;99.90;;;;;;5054445;28;20760;-83
2021/04/07 08:30:57;;;;;;;15.95;2.78;;;5.00;99.90;;;;;;5043264;28;20029;-82
2021/04/07 08:33:24;;;;;;;13.20;2.30;;;5.00;99.90;;;;;;5043837;28;20510;-83
2021/04/07 08:35:53;;;;;;;18.65;2.90;;;5.00;99.90;;;;;;5054486;28;20029;-82
2021/04/07 08:38:30;;;;;;;17.00;2.80;;;4.90;99.90;;;;;;5048513;28;20028;-84
2021/04/07 08:41:07;;;;;;;15.18;2.80;;;4.90;99.90;;;;;;5043572;28;20037;-84
2021/04/07 08:43:33;;;;;;;22.80;2.95;;;4.90;99.90;;;;;;5054951;28;20028;-83
2021/04/07 08:46:14;;;;;;;17.25;3.13;;;4.90;99.90;;;;;;5050806;28;20017;-84
2021/04/07 08:48:40;;;;;;;21.30;3.20;;;4.90;99.90;;;;;;5050529;28;20025;-81
2021/04/07 08:51:08;;;;;;;21.63;3.53;;;5.00;99.90;;;;;;5047685;28;20025;-82
2021/04/07 08:53:38;;;;;;;15.82;2.67;;;5.20;99.90;;;;;;5037258;28;20029;-84
2021/04/07 08:56:12;;;;;;;20.40;3.75;;;5.50;99.90;;;;;;5046313;28;20040;-82
2021/04/07 08:59:01;;;;;;;21.10;3.95;;;5.60;99.90;;;;;;5054856;28;20045;-82
2021/04/07 09:01:30;;;;;;;19.60;2.95;;;5.70;99.90;;;;;;5043423;28;20382;-81
2021/04/07 09:04:09;;;;;;;22.13;3.35;;;5.60;99.90;;;;;;5033132;28;20100;-81
2021/04/07 09:06:36;;;;;;;31.10;4.72;;;5.50;99.90;;;;;;5043408;28;20028;-83
2021/04/07 09:09:04;;;;;;;28.67;4.82;;;5.40;99.90;;;;;;5046400;28;20029;-81
2021/04/07 09:11:35;;;;;;;25.60;3.08;;;5.40;99.90;;;;;;5047436;28;20029;-83
2021/04/07 09:14:05;;;;;;;21.52;3.55;;;5.30;99.90;;;;;;5036929;28;20054;-85
2021/04/07 09:16:39;;;;;;;19.45;2.67;;;5.30;99.90;;;;;;5048896;28;20037;-84
2021/04/07 09:19:17;;;;;;;20.73;4.28;;;5.30;99.90;;;;;;5047765;28;20086;-84
2021/04/07 09:22:06;;;;;;;27.15;4.10;;;5.30;99.90;;;;;;5052423;28;20021;-84
2021/04/07 09:24:41;;;;;;;27.00;4.25;;;5.40;99.90;;;;;;5053892;28;20057;-85
2021/04/07 09:27:19;;;;;;;22.63;3.35;;;5.60;99.90;;;;;;5054235;28;20398;-85
2021/04/07 09:29:45;;;;;;;26.42;3.80;;;6.00;99.90;;;;;;5046061;28;20056;-84
2021/04/07 09:32:18;;;;;;;20.67;4.15;;;6.30;99.90;;;;;;5036060;28;20084;-84
2021/04/07 09:34:44;;;;;;;31.42;5.85;;;6.70;99.90;;;;;;5043956;28;20471;-84
2021/04/07 09:37:11;;;;;;;19.73;3.20;;;7.00;99.90;;;;;;5054538;28;20037;-85
2021/04/07 09:39:38;;;;;;;26.23;4.10;;;7.10;99.90;;;;;;5040917;28;20026;-83
2021/04/07 09:42:06;;;;;;;16.15;3.80;;;7.20;99.90;;;;;;5037297;28;20033;-85
2021/04/07 09:44:32;;;;;;;19.63;3.42;;;7.40;99.90;;;;;;5038043;28;20792;-81
2021/04/07 09:46:59;;;;;;;19.83;3.53;;;7.50;99.90;;;;;;5054207;28;20029;-84
2021/04/07 09:49:26;;;;;;;19.30;3.53;;;7.50;99.90;;;;;;5056913;28;20024;-84
2021/04/07 09:51:52;;;;;;;23.00;3.92;;;7.30;99.90;;;;;;5054605;28;20021;-85
2021/04/07 09:54:26;;;;;;;22.23;4.28;;;7.00;99.90;;;;;;5051081;28;20032;-85
2021/04/07 09:56:59;;;;;;;;;;;6.80;99.90;;;;;;5037889;28;20108;-83
2021/04/07 09:59:46;;;;;;;17.33;2.53;;;6.60;99.90;;;;;;5034943;28;19908;-83
2021/04/07 10:02:13;;;;;;;15.60;2.53;;;6.30;99.90;;;;;;5038407;28;20044;-84
2021/04/07 10:04:44;;;;;;;13.18;1.83;;;6.00;99.90;;;;;;5044734;28;20498;-84
2021/04/07 10:07:11;;;;;;;23.70;3.65;;;5.90;99.90;;;;;;5050600;28;20049;-84
2021/04/07 10:09:37;;;;;;;20.27;2.67;;;6.00;99.90;;;;;;5033626;28;20033;-84
2021/04/07 10:12:04;;;;;;;17.65;3.05;;;6.60;99.90;;;;;;5043547;28;20017;-82
2021/04/07 10:14:30;;;;;;;14.57;2.95;;;7.20;99.90;;;;;;5052238;28;20025;-83
2021/04/07 10:16:56;;;;;;;17.38;2.97;;;7.30;99.90;;;;;;5035332;28;20036;-83
2021/04/07 10:19:28;;;;;;;20.08;3.10;;;7.20;99.90;;;;;;5054038;28;20028;-86
2021/04/07 10:21:58;;;;;;;20.15;3.83;;;7.10;99.90;;;;;;5050928;28;20643;-85
2021/04/07 10:24:24;;;;;;;29.63;4.80;;;7.00;99.90;;;;;;5037952;28;20053;-85
2021/04/07 10:26:50;;;;;;;20.27;3.83;;;7.00;99.90;;;;;;5049797;28;20489;-83
2021/04/07 10:29:23;;;;;;;16.35;3.40;;;6.90;99.90;;;;;;5048425;28;20013;-85
2021/04/07 10:31:57;;;;;;;19.42;3.67;;;7.30;99.90;;;;;;5039947;28;20021;-85
2021/04/07 10:34:32;;;;;;;19.30;3.20;;;7.30;99.90;;;;;;5037124;28;20040;-83
2021/04/07 10:36:59;;;;;;;13.57;2.47;;;7.10;99.90;;;;;;5047190;28;20628;-84
2021/04/07 10:39:39;;;;;;;17.65;2.72;;;6.80;99.90;;;;;;5045988;28;20017;-85
2021/04/07 10:42:10;;;;;;;11.40;2.15;;;6.50;99.90;;;;;;5034904;28;20119;-84
2021/04/07 10:44:35;;;;;;;16.25;3.30;;;6.40;99.90;;;;;;5040781;28;20052;-83
2021/04/07 10:47:02;;;;;;;17.25;3.13;;;6.50;99.90;;;;;;5034665;28;20052;-83
2021/04/07 10:49:28;;;;;;;15.23;2.75;;;6.70;99.90;;;;;;5052654;28;20048;-81
2021/04/07 10:52:06;;;;;;;20.00;3.22;;;6.70;99.90;;;;;;5041715;28;20528;-84
2021/04/07 10:54:33;;;;;;;15.77;2.50;;;6.60;99.90;;;;;;5038203;28;20036;-82
2021/04/07 10:57:00;;;;;;;20.70;3.40;;;6.20;99.90;;;;;;5058037;28;20025;-83
2021/04/07 10:59:30;;;;;;;18.02;2.67;;;5.90;99.90;;;;;;5042159;28;20040;-83
2021/04/07 11:01:56;;;;;;;17.30;2.85;;;5.70;99.90;;;;;;5049274;28;20021;-84
2021/04/07 11:04:21;;;;;;;15.23;2.50;;;5.70;99.90;;;;;;5038598;28;20040;-84
2021/04/07 11:06:54;;;;;;;15.55;3.33;;;5.70;99.90;;;;;;5027385;28;20020;-82
2021/04/07 11:09:25;;;;;;;14.57;2.80;;;5.70;99.90;;;;;;5047835;28;20052;-84
2021/04/07 11:11:51;;;;;;;18.48;3.28;;;5.90;99.90;;;;;;5048654;28;20021;-84
2021/04/07 11:14:17;;;;;;;17.55;3.30;;;6.50;99.90;;;;;;5048785;28;20033;-84
2021/04/07 11:16:43;;;;;;;20.08;3.22;;;7.50;99.90;;;;;;5048852;28;20019;-85
2021/04/07 11:19:16;;;;;;;19.05;2.75;;;8.40;99.90;;;;;;5052538;28;20021;-86
2021/04/07 11:21:42;;;;;;;15.80;2.53;;;8.50;99.90;;;;;;5050358;28;20052;-85
2021/04/07 11:24:08;;;;;;;16.77;2.30;;;8.20;99.90;;;;;;5049077;28;20099;-84
2021/04/07 11:26:34;;;;;;;22.33;3.83;;;8.00;99.90;;;;;;5051080;28;20426;-85
2021/04/07 11:28:59;;;;;;;16.38;3.28;;;7.70;99.90;;;;;;5051914;28;20089;-84
2021/04/07 11:31:29;;;;;;;18.50;2.78;;;7.40;99.90;;;;;;5049337;28;20021;-82
2021/04/07 11:33:59;;;;;;;18.00;3.13;;;6.80;99.90;;;;;;5053616;28;20104;-83
2021/04/07 11:46:41;;;;;;;14.68;2.50;;;6.10;99.90;;;;;;5038162;28;20033;-83
2021/04/07 11:49:07;;;;;;;16.10;2.42;;;6.30;99.90;;;;;;5035144;28;20025;-83
2021/04/07 11:51:37;;;;;;;13.85;3.13;;;6.50;99.90;;;;;;5035534;28;20021;-85
2021/04/07 11:54:09;;;;;;;12.02;2.05;;;6.70;99.90;;;;;;5055136;22;20021;-83
2021/04/07 11:56:44;;;;;;;11.02;2.50;;;7.00;99.90;;;;;;5070770;28;20119;-85
2021/04/07 11:59:12;;;;;;;15.07;2.88;;;7.30;99.90;;;;;;5057613;28;20036;-85
2021/04/07 12:01:38;;;;;;;16.50;2.78;;;7.40;99.90;;;;;;5058755;28;20446;-87
2021/04/07 12:04:04;;;;;;;13.85;2.65;;;7.50;99.90;;;;;;5072963;28;20020;-87
2021/04/07 12:06:30;;;;;;;15.60;2.63;;;7.50;99.90;;;;;;5072031;28;20028;-85
2021/04/07 12:08:55;;;;;;;16.70;2.67;;;7.50;99.90;;;;;;5072726;28;20024;-87
2021/04/07 12:11:21;;;;;;;12.48;2.28;;;7.50;99.90;;;;;;5073983;28;20037;-84
2021/04/07 12:13:47;;;;;;;16.55;2.42;;;7.30;99.90;;;;;;5073490;28;20024;-84
2021/04/07 12:16:12;;;;;;;13.15;3.15;;;7.10;99.90;;;;;;5055828;28;20017;-86
2021/04/07 12:18:38;;;;;;;14.23;2.72;;;6.80;99.90;;;;;;5053297;28;20068;-82
2021/04/07 12:21:04;;;;;;;9.43;1.77;;;6.60;99.90;;;;;;5068097;28;20017;-88
2021/04/07 12:23:30;;;;;;;11.80;2.08;;;6.50;99.90;;;;;;5056944;28;20032;-87
2021/04/07 12:25:57;;;;;;;8.65;1.85;;;6.40;99.90;;;;;;5070611;28;20028;-86
2021/04/07 12:28:23;;;;;;;13.63;2.67;;;6.20;99.90;;;;;;5063136;28;20017;-83
2021/04/07 12:30:50;;;;;;;8.93;1.52;;;6.10;99.90;;;;;;5059715;28;20024;-86
2021/04/07 12:33:22;;;;;;;17.42;2.75;;;6.00;99.90;;;;;;5056679;28;20497;-84
2021/04/07 12:35:49;;;;;;;14.68;2.38;;;5.80;99.90;;;;;;5063193;28;20025;-87
2021/04/07 12:38:16;;;;;;;10.07;1.90;;;5.60;99.90;;;;;;5075299;28;20024;-86
2021/04/07 12:40:45;;;;;;;10.95;2.17;;;5.50;99.90;;;;;;5071634;28;20060;-87
2021/04/07 12:43:10;;;;;;;15.18;3.03;;;5.50;99.90;;;;;;5070968;28;20397;-86
2021/04/07 12:45:36;;;;;;;9.38;1.90;;;5.60;99.90;;;;;;5068607;28;20029;-85
2021/04/07 12:48:02;;;;;;;12.10;1.98;;;5.70;99.90;;;;;;5075846;28;20029;-86
2021/04/07 12:50:27;;;;;;;10.52;2.22;;;6.00;99.90;;;;;;5060714;28;20063;-86
2021/04/07 12:52:53;;;;;;;10.75;2.00;;;6.40;99.90;;;;;;5064288;28;20017;-88
2021/04/07 12:55:18;;;;;;;14.50;2.83;;;7.10;99.90;;;;;;5063787;28;20059;-84
2021/04/07 12:57:44;;;;;;;12.80;2.50;;;7.90;99.90;;;;;;5067683;28;20032;-85
2021/04/07 13:00:10;;;;;;;11.32;2.00;;;8.50;99.90;;;;;;5062939;28;20025;-85
2021/04/07 13:02:36;;;;;;;12.65;1.98;;;8.40;99.90;;;;;;5053698;28;20029;-86
2021/04/07 13:05:01;;;;;;;10.90;2.15;;;8.00;99.90;;;;;;5068027;28;20035;-88